Nome, Alaska
Current Conditions -  °F | °C
As of 8:53 PM on Thursday 18 Dec 2014 (Local Time) from PAOM Reporting Station
Overcast Overcast  
Wind Chill: 21°   Ceiling: 13000
Heat Index: 30°   Visibility: 10mi
Dew Point: 14°   Wind: 12mph
Humidity: 51%   Direction: 50°NE
Pressure: 29.42"   Gusts: NA
Location:  64.5°N, 165.41°W
Report Text: PAOM 190553Z 05010KT 10SM OVC130 M01/M10 A2942 RMK SLP961 T10111100 11011 21050 56014 VIA AUTODIAL
Loading
Personal Weather Stations






























Interactive Weather Map New forecast layout! Learn more

10-Day Weather Forecast

Advertisements
Track Severe Weather on mobile